Savant Lake, Canada
Current Conditions -  °F | °C
As of 3:00 AM on Sunday 26 Oct 2014 (Local Time) from CYXL Reporting Station
Clear Clear  
Wind Chill: 29°   Ceiling: Unl
Heat Index: 36°   Visibility: 15mi
Dew Point: 30°   Wind: 9mph
Humidity: 81%   Direction: 320°NW
Pressure: 29.9"   Gusts: NA
Location:  50.23°N, 90.72°W
Report Text: CYXL 260800Z 32008KT 15SM SKC 02/M01 A2990 RMK SLP142
Loading
Personal Weather Stations






























Interactive Weather Map
Tropical Storm Tracking
New forecast layout! Learn more

10-Day Weather Forecast

Advertisements
Track Severe Weather on mobile